createdAt,value
2017-10-27T00:00:22.750Z,11.50
2017-10-27T00:02:57.277Z,11.50
2017-10-27T00:05:30.889Z,11.50
2017-10-27T00:08:04.669Z,11.50
2017-10-27T00:10:38.531Z,11.50
2017-10-27T00:13:13.012Z,11.50
2017-10-27T00:15:47.389Z,11.50
2017-10-27T00:18:21.196Z,11.50
2017-10-27T00:20:54.976Z,11.50
2017-10-27T00:23:28.741Z,11.50
2017-10-27T00:26:03.303Z,11.50
2017-10-27T00:28:36.840Z,11.50
2017-10-27T00:31:10.646Z,11.50
2017-10-27T00:33:44.451Z,11.50
2017-10-27T00:36:18.225Z,11.50
2017-10-27T00:38:52.028Z,11.40
2017-10-27T00:41:25.872Z,11.40
2017-10-27T00:43:59.694Z,11.40
2017-10-27T00:46:33.445Z,11.30
2017-10-27T00:49:07.213Z,11.30
2017-10-27T00:51:41.024Z,11.30
2017-10-27T00:54:15.570Z,11.20
2017-10-27T00:56:50.201Z,11.20
2017-10-27T00:59:23.953Z,11.20
2017-10-27T01:01:57.598Z,11.20
2017-10-27T01:04:31.270Z,11.20
2017-10-27T01:07:05.123Z,11.10
2017-10-27T01:09:38.882Z,11.10
2017-10-27T01:12:12.640Z,11.10
2017-10-27T01:14:46.405Z,11.10
2017-10-27T01:17:20.104Z,11.10
2017-10-27T01:19:53.841Z,11.10
2017-10-27T01:22:27.649Z,11.10
2017-10-27T01:25:01.452Z,11.20
2017-10-27T01:27:35.293Z,11.20
2017-10-27T01:30:09.057Z,11.20
2017-10-27T01:32:42.878Z,11.20
2017-10-27T01:35:16.716Z,11.20
2017-10-27T01:37:50.558Z,11.20
2017-10-27T01:40:25.552Z,11.30
2017-10-27T01:42:59.271Z,11.30
2017-10-27T01:45:32.996Z,11.30
2017-10-27T01:48:06.801Z,11.30
2017-10-27T01:50:40.662Z,11.20
2017-10-27T01:53:14.332Z,11.20
2017-10-27T01:55:48.120Z,11.10
2017-10-27T01:58:21.726Z,11.20
2017-10-27T02:00:55.524Z,11.20
2017-10-27T02:03:29.378Z,11.20
2017-10-27T02:06:03.940Z,11.20
2017-10-27T02:08:37.789Z,11.20
2017-10-27T02:11:12.382Z,11.20
2017-10-27T02:13:46.176Z,11.20
2017-10-27T02:16:20.705Z,11.20
2017-10-27T02:18:54.671Z,11.20
2017-10-27T02:21:28.546Z,11.20
2017-10-27T02:24:02.266Z,11.10
2017-10-27T02:26:36.653Z,11.00
2017-10-27T02:29:10.440Z,11.00
2017-10-27T02:31:45.002Z,11.00
2017-10-27T02:34:18.799Z,11.00
2017-10-27T02:36:53.515Z,11.00
2017-10-27T02:39:27.425Z,11.00
2017-10-27T02:42:01.214Z,11.00
2017-10-27T02:44:34.851Z,11.00
2017-10-27T02:47:08.673Z,11.00
2017-10-27T02:49:42.505Z,11.00
2017-10-27T02:52:16.925Z,11.00
2017-10-27T02:54:50.571Z,11.00
2017-10-27T02:57:25.096Z,11.00
2017-10-27T02:59:58.745Z,11.00
2017-10-27T03:02:32.532Z,11.10
2017-10-27T03:05:06.404Z,11.10
2017-10-27T03:07:40.205Z,11.10
2017-10-27T03:10:14.742Z,11.10
2017-10-27T03:12:48.497Z,11.10
2017-10-27T03:15:22.872Z,11.00
2017-10-27T03:17:57.346Z,11.00
2017-10-27T03:20:31.020Z,11.00
2017-10-27T03:23:04.853Z,11.00
2017-10-27T03:25:39.395Z,11.00
2017-10-27T03:28:13.921Z,11.00
2017-10-27T03:30:47.635Z,11.00
2017-10-27T03:33:21.366Z,11.00
2017-10-27T03:35:55.129Z,11.00
2017-10-27T03:38:28.908Z,11.00
2017-10-27T03:41:03.393Z,11.00
2017-10-27T03:43:37.201Z,11.00
2017-10-27T03:46:10.895Z,10.90
2017-10-27T03:48:44.770Z,10.90
2017-10-27T03:51:18.596Z,10.90
2017-10-27T03:53:52.428Z,10.90
2017-10-27T03:56:26.182Z,10.90
2017-10-27T03:58:59.722Z,10.90
2017-10-27T04:01:33.542Z,10.90
2017-10-27T04:04:07.298Z,10.90
2017-10-27T04:06:40.936Z,10.90
2017-10-27T04:09:14.660Z,11.00
2017-10-27T04:11:48.465Z,10.90
2017-10-27T04:14:22.191Z,10.80
2017-10-27T04:16:55.956Z,10.80
2017-10-27T04:19:29.749Z,10.80
2017-10-27T04:22:03.410Z,10.80
2017-10-27T04:24:37.965Z,10.80
2017-10-27T04:27:12.622Z,10.80
2017-10-27T04:29:46.326Z,10.80
2017-10-27T04:32:20.095Z,10.80
2017-10-27T04:34:54.617Z,10.80
2017-10-27T04:37:28.401Z,10.80
2017-10-27T04:40:02.841Z,10.80
2017-10-27T04:42:36.568Z,10.80
2017-10-27T04:45:10.194Z,10.80
2017-10-27T04:47:44.162Z,10.80
2017-10-27T04:50:18.732Z,10.70
2017-10-27T04:52:52.514Z,10.70
2017-10-27T04:55:27.124Z,10.60
2017-10-27T04:58:00.957Z,10.60
2017-10-27T05:00:34.549Z,10.60
2017-10-27T05:03:08.222Z,10.70
2017-10-27T05:05:42.057Z,10.70
2017-10-27T05:08:15.862Z,10.60
2017-10-27T05:10:49.735Z,10.70
2017-10-27T05:13:23.631Z,10.70
2017-10-27T05:15:57.396Z,10.70
2017-10-27T05:18:37.615Z,10.70
2017-10-27T05:21:17.625Z,10.80
2017-10-27T05:23:57.158Z,10.80
2017-10-27T05:26:31.118Z,10.80
2017-10-27T05:29:04.903Z,10.70
2017-10-27T05:31:39.568Z,10.60
2017-10-27T05:34:14.839Z,10.70
2017-10-27T05:36:49.357Z,10.60
2017-10-27T05:39:24.059Z,10.70
2017-10-27T05:41:57.793Z,10.60
2017-10-27T05:44:31.457Z,10.60
2017-10-27T05:47:05.893Z,10.50
2017-10-27T05:49:40.461Z,10.40
2017-10-27T05:52:14.516Z,10.40
2017-10-27T05:54:48.373Z,10.40
2017-10-27T05:57:22.101Z,10.30
2017-10-27T05:59:55.811Z,10.30
2017-10-27T06:02:30.370Z,10.20
2017-10-27T06:05:04.648Z,10.20
2017-10-27T06:07:38.281Z,10.20
2017-10-27T06:10:12.020Z,10.30
2017-10-27T06:12:45.897Z,10.20
2017-10-27T06:15:19.693Z,10.10
2017-10-27T06:17:53.499Z,10.10
2017-10-27T06:20:27.280Z,10.10
2017-10-27T06:23:01.797Z,10.10
2017-10-27T06:25:35.644Z,10.10
2017-10-27T06:28:09.408Z,10.10
2017-10-27T06:30:43.261Z,10.20
2017-10-27T06:33:17.022Z,10.20
2017-10-27T06:35:50.826Z,10.20
2017-10-27T06:38:24.972Z,10.30
2017-10-27T06:40:58.581Z,10.30
2017-10-27T06:43:32.244Z,10.30
2017-10-27T06:46:05.903Z,10.30
2017-10-27T06:48:39.628Z,10.30
2017-10-27T06:51:13.327Z,10.20
2017-10-27T06:53:47.069Z,10.30
2017-10-27T06:56:21.703Z,10.20
2017-10-27T06:58:55.532Z,10.20
2017-10-27T07:01:29.217Z,10.20
2017-10-27T07:04:02.982Z,10.20
2017-10-27T07:06:36.640Z,10.20
2017-10-27T07:09:10.421Z,10.20
2017-10-27T07:11:44.309Z,10.30
2017-10-27T07:14:17.868Z,10.40
2017-10-27T07:16:51.516Z,10.50
2017-10-27T07:19:25.361Z,10.50
2017-10-27T07:21:59.034Z,10.50
2017-10-27T07:24:32.842Z,10.40
2017-10-27T07:27:07.281Z,10.50
2017-10-27T07:29:41.047Z,10.50
2017-10-27T07:32:14.858Z,10.50
2017-10-27T07:34:48.565Z,10.40
2017-10-27T07:37:22.440Z,10.50
2017-10-27T07:39:56.257Z,10.40
2017-10-27T07:42:30.806Z,10.50
2017-10-27T07:45:05.313Z,10.50
2017-10-27T07:47:39.160Z,10.50
2017-10-27T07:50:13.749Z,10.60
2017-10-27T07:52:47.595Z,10.60
2017-10-27T07:55:21.399Z,10.60
2017-10-27T07:57:55.910Z,10.50
2017-10-27T08:00:29.617Z,10.50
2017-10-27T08:03:03.298Z,10.60
2017-10-27T08:05:37.884Z,10.90
2017-10-27T08:08:12.586Z,10.80
2017-10-27T08:10:46.294Z,10.80
2017-10-27T08:13:20.088Z,10.70
2017-10-27T08:15:53.788Z,10.60
2017-10-27T08:18:27.374Z,10.50
2017-10-27T08:21:01.794Z,10.80
2017-10-27T08:23:35.465Z,10.80
2017-10-27T08:26:09.125Z,11.10
2017-10-27T08:28:42.966Z,11.40
2017-10-27T08:31:16.733Z,11.30
2017-10-27T08:33:50.543Z,11.30
2017-10-27T08:36:24.288Z,11.20
2017-10-27T08:38:58.744Z,11.00
2017-10-27T08:41:32.413Z,10.90
2017-10-27T08:44:06.121Z,11.00
2017-10-27T08:46:39.742Z,11.00
2017-10-27T08:49:13.345Z,11.10
2017-10-27T08:51:47.049Z,11.00
2017-10-27T08:54:20.809Z,11.20
2017-10-27T08:56:55.348Z,11.20
2017-10-27T08:59:29.059Z,11.20
2017-10-27T09:02:02.872Z,11.20
2017-10-27T09:04:37.310Z,11.40
2017-10-27T09:07:11.086Z,11.40
2017-10-27T09:09:44.960Z,11.60
2017-10-27T09:12:19.546Z,11.70
2017-10-27T09:14:53.981Z,11.80
2017-10-27T09:17:27.586Z,11.80
2017-10-27T09:20:01.341Z,11.90
2017-10-27T09:22:34.966Z,12.10
2017-10-27T09:25:08.584Z,12.10
2017-10-27T09:27:43.256Z,12.20
2017-10-27T09:30:16.799Z,12.30
2017-10-27T09:32:50.592Z,12.40
2017-10-27T09:35:24.425Z,12.40
2017-10-27T09:37:58.249Z,12.40
2017-10-27T09:40:32.658Z,12.60
2017-10-27T09:43:06.431Z,12.60
2017-10-27T09:45:40.168Z,12.50
2017-10-27T09:48:13.912Z,12.50
2017-10-27T09:50:48.029Z,12.40
2017-10-27T09:53:24.001Z,12.30
2017-10-27T09:55:58.555Z,12.40
2017-10-27T09:58:32.377Z,12.60
2017-10-27T10:01:06.976Z,12.80
2017-10-27T10:03:40.734Z,12.80
2017-10-27T10:06:14.511Z,12.90
2017-10-27T10:08:48.996Z,13.20
2017-10-27T10:11:22.608Z,13.10
2017-10-27T10:13:56.316Z,13.10
2017-10-27T10:16:30.114Z,13.00
2017-10-27T10:19:03.888Z,12.80
2017-10-27T10:21:38.445Z,12.90
2017-10-27T10:24:12.110Z,12.90
2017-10-27T10:26:45.689Z,12.80
2017-10-27T10:29:19.489Z,12.80
2017-10-27T10:31:54.058Z,12.80
2017-10-27T10:34:27.956Z,12.80
2017-10-27T10:37:02.485Z,12.60
2017-10-27T10:39:36.227Z,12.50
2017-10-27T10:42:09.828Z,12.70
2017-10-27T10:44:43.612Z,12.90
2017-10-27T10:47:17.443Z,12.90
2017-10-27T10:49:53.150Z,12.70
2017-10-27T10:52:27.398Z,12.70
2017-10-27T10:55:01.002Z,12.90
2017-10-27T10:57:34.786Z,13.00
2017-10-27T11:00:08.411Z,13.10
2017-10-27T11:02:42.122Z,13.20
2017-10-27T11:05:15.883Z,13.40
2017-10-27T11:07:50.250Z,13.20
2017-10-27T11:10:24.637Z,13.20
2017-10-27T11:12:58.470Z,13.20
2017-10-27T11:15:32.279Z,13.30
2017-10-27T11:18:06.128Z,13.30
2017-10-27T11:20:40.784Z,13.40
2017-10-27T11:23:14.536Z,13.40
2017-10-27T11:25:48.275Z,13.60
2017-10-27T11:28:22.084Z,13.60
2017-10-27T11:30:56.506Z,13.70
2017-10-27T11:33:30.194Z,13.70
2017-10-27T11:36:05.834Z,13.60
2017-10-27T11:38:40.175Z,14.00
2017-10-27T11:41:13.946Z,14.00
2017-10-27T11:43:47.694Z,13.90
2017-10-27T11:46:21.492Z,13.80
2017-10-27T11:48:55.205Z,13.80
2017-10-27T11:51:28.994Z,13.60
2017-10-27T11:54:02.638Z,13.50
2017-10-27T11:56:36.481Z,13.60
2017-10-27T11:59:11.250Z,13.50
2017-10-27T12:01:45.053Z,13.30
2017-10-27T12:04:18.850Z,13.30
2017-10-27T12:06:52.634Z,13.30
2017-10-27T12:09:26.395Z,13.20
2017-10-27T12:12:00.210Z,13.10
2017-10-27T12:14:33.982Z,13.00
2017-10-27T12:17:07.785Z,13.00
2017-10-27T12:19:41.652Z,13.00
2017-10-27T12:22:15.322Z,13.20
2017-10-27T12:24:49.144Z,13.20
2017-10-27T12:27:23.706Z,13.10
2017-10-27T12:29:57.407Z,13.10
2017-10-27T12:32:31.168Z,13.20
2017-10-27T12:35:05.076Z,13.20
2017-10-27T12:37:38.779Z,13.30
2017-10-27T12:40:13.539Z,13.40
2017-10-27T12:42:48.282Z,13.30
2017-10-27T12:45:22.089Z,13.10
2017-10-27T12:47:56.629Z,14.50
2017-10-27T12:50:30.379Z,14.50
2017-10-27T12:53:04.086Z,14.80
2017-10-27T12:55:37.921Z,15.30
2017-10-27T12:58:11.657Z,15.20
2017-10-27T13:00:45.437Z,15.40
2017-10-27T13:03:20.153Z,15.50
2017-10-27T13:05:53.788Z,15.30
2017-10-27T13:08:28.378Z,15.50
2017-10-27T13:11:02.208Z,15.50
2017-10-27T13:13:36.641Z,15.20
2017-10-27T13:16:10.502Z,15.10
2017-10-27T13:18:45.198Z,14.90
2017-10-27T13:21:18.917Z,14.90
2017-10-27T13:23:52.671Z,14.90
2017-10-27T13:26:26.517Z,15.40
2017-10-27T13:29:00.235Z,14.90
2017-10-27T13:31:33.997Z,15.10
2017-10-27T13:34:07.727Z,16.30
2017-10-27T13:36:41.548Z,16.30
2017-10-27T13:39:15.272Z,15.70
2017-10-27T13:41:49.076Z,14.80
2017-10-27T13:44:22.884Z,14.90
2017-10-27T13:46:56.769Z,14.70
2017-10-27T13:49:31.520Z,14.70
2017-10-27T13:52:05.129Z,14.50
2017-10-27T13:54:38.900Z,14.30
2017-10-27T13:57:13.005Z,14.90
2017-10-27T13:59:46.743Z,15.60
2017-10-27T14:02:20.508Z,16.10
2017-10-27T14:04:54.321Z,15.70
2017-10-27T14:07:28.053Z,15.20
2017-10-27T14:10:01.831Z,14.90
2017-10-27T14:12:35.534Z,14.60
2017-10-27T14:15:09.343Z,14.00
2017-10-27T14:17:43.154Z,13.90
2017-10-27T14:20:16.903Z,13.90
2017-10-27T14:22:50.722Z,13.90
2017-10-27T14:25:24.441Z,14.10
2017-10-27T14:27:58.127Z,14.60
2017-10-27T14:30:31.882Z,15.40
2017-10-27T14:33:05.600Z,15.70
2017-10-27T14:35:40.079Z,15.80
2017-10-27T14:38:14.683Z,16.40
2017-10-27T14:40:48.418Z,16.40
2017-10-27T14:43:22.104Z,16.90
2017-10-27T14:45:55.889Z,16.90
2017-10-27T14:48:29.509Z,15.40
2017-10-27T14:51:04.032Z,13.10
2017-10-27T14:53:37.668Z,13.00
2017-10-27T14:56:11.360Z,13.20
2017-10-27T14:58:45.087Z,13.20
2017-10-27T15:01:18.923Z,13.10
2017-10-27T15:03:53.541Z,13.60
2017-10-27T15:06:27.120Z,13.90
2017-10-27T15:09:00.856Z,13.90
2017-10-27T15:11:35.316Z,13.20
2017-10-27T15:14:08.991Z,13.20
2017-10-27T15:16:42.826Z,12.90
2017-10-27T15:19:16.629Z,12.70
2017-10-27T15:21:50.275Z,12.60
2017-10-27T15:24:24.833Z,12.60
2017-10-27T15:26:59.377Z,12.50
2017-10-27T15:29:33.980Z,12.50
2017-10-27T15:32:07.869Z,12.40
2017-10-27T15:34:41.675Z,12.40
2017-10-27T15:37:15.390Z,12.30
2017-10-27T15:39:49.045Z,12.30
2017-10-27T15:42:22.801Z,12.20
2017-10-27T15:44:56.617Z,12.10
2017-10-27T15:47:31.126Z,12.10
2017-10-27T15:50:04.836Z,12.10
2017-10-27T15:52:38.585Z,12.10
2017-10-27T15:55:12.130Z,12.10
2017-10-27T15:57:46.001Z,12.00
2017-10-27T16:00:19.800Z,12.00
2017-10-27T16:02:53.717Z,12.00
2017-10-27T16:05:27.435Z,12.00
2017-10-27T16:08:01.300Z,12.00
2017-10-27T16:10:34.982Z,11.90
2017-10-27T16:13:08.719Z,11.90
2017-10-27T16:15:42.461Z,11.90
2017-10-27T16:18:17.011Z,11.90
2017-10-27T16:20:51.976Z,11.80
2017-10-27T16:23:25.577Z,11.80
2017-10-27T16:26:00.156Z,11.70
2017-10-27T16:28:34.007Z,11.70
2017-10-27T16:31:08.611Z,11.70
2017-10-27T16:33:42.339Z,11.70
2017-10-27T16:36:16.130Z,11.60
2017-10-27T16:38:50.654Z,11.50
2017-10-27T16:41:24.265Z,11.40
2017-10-27T16:43:57.933Z,11.40
2017-10-27T16:46:31.645Z,11.30
2017-10-27T16:49:05.386Z,11.20
2017-10-27T16:51:38.977Z,11.20
2017-10-27T16:54:12.670Z,11.00
2017-10-27T16:56:46.513Z,11.00
2017-10-27T16:59:20.324Z,11.00
2017-10-27T17:01:54.069Z,11.00
2017-10-27T17:04:27.837Z,10.90
2017-10-27T17:07:01.583Z,11.00
2017-10-27T17:09:35.349Z,11.00
2017-10-27T17:12:09.212Z,11.10
2017-10-27T17:14:43.814Z,11.10
2017-10-27T17:17:17.585Z,11.10
2017-10-27T17:19:52.127Z,11.20
2017-10-27T17:22:25.847Z,11.10
2017-10-27T17:24:59.627Z,11.20
2017-10-27T17:27:33.321Z,11.20
2017-10-27T17:30:07.037Z,11.10
2017-10-27T17:32:41.545Z,11.10
2017-10-27T17:35:15.249Z,11.00
2017-10-27T17:37:49.098Z,10.90
2017-10-27T17:40:22.816Z,10.90
2017-10-27T17:42:56.460Z,10.80
2017-10-27T17:45:30.597Z,10.80
2017-10-27T17:48:04.220Z,10.80
2017-10-27T17:50:37.969Z,10.80
2017-10-27T17:53:11.793Z,10.80
2017-10-27T17:55:45.545Z,10.80
2017-10-27T17:58:19.253Z,10.80
2017-10-27T18:00:52.851Z,10.70
2017-10-27T18:03:26.437Z,10.80
2017-10-27T18:06:02.288Z,10.80
2017-10-27T18:08:37.078Z,10.80
2017-10-27T18:11:11.342Z,10.80
2017-10-27T18:13:45.873Z,10.80
2017-10-27T18:16:20.461Z,10.70
2017-10-27T18:18:54.203Z,10.70
2017-10-27T18:21:27.953Z,10.50
2017-10-27T18:24:01.663Z,10.40
2017-10-27T18:26:36.240Z,10.30
2017-10-27T18:29:10.105Z,10.30
2017-10-27T18:31:43.788Z,10.30
2017-10-27T18:34:17.437Z,10.30
2017-10-27T18:36:51.957Z,10.30
2017-10-27T18:39:25.854Z,10.30
2017-10-27T18:41:59.654Z,10.40
2017-10-27T18:44:33.359Z,10.50
2017-10-27T18:47:07.044Z,10.40
2017-10-27T18:49:40.773Z,10.40
2017-10-27T18:52:14.463Z,10.40
2017-10-27T18:54:48.060Z,10.40
2017-10-27T18:57:22.523Z,10.40
2017-10-27T18:59:56.685Z,10.40
2017-10-27T19:02:31.318Z,10.40
2017-10-27T19:05:05.191Z,10.40
2017-10-27T19:07:38.914Z,10.40
2017-10-27T19:10:12.661Z,10.40
2017-10-27T19:12:46.337Z,10.40
2017-10-27T19:15:22.189Z,10.50
2017-10-27T19:17:56.241Z,10.40
2017-10-27T19:20:30.370Z,10.50
2017-10-27T19:23:04.521Z,10.40
2017-10-27T19:25:38.876Z,10.40
2017-10-27T19:28:12.617Z,10.50
2017-10-27T19:30:46.293Z,10.50
2017-10-27T19:33:20.125Z,10.50
2017-10-27T19:35:53.969Z,10.40
2017-10-27T19:38:27.984Z,10.40
2017-10-27T19:41:02.672Z,10.30
2017-10-27T19:43:36.234Z,10.20
2017-10-27T19:46:10.746Z,10.10
2017-10-27T19:48:45.380Z,10.10
2017-10-27T19:51:19.218Z,10.10
2017-10-27T19:53:53.273Z,10.10
2017-10-27T19:56:27.063Z,10.10
2017-10-27T19:59:01.128Z,10.20
2017-10-27T20:01:35.739Z,10.30
2017-10-27T20:04:10.632Z,10.30
2017-10-27T20:06:45.197Z,10.30
2017-10-27T20:09:19.363Z,10.30
2017-10-27T20:11:54.664Z,10.30
2017-10-27T20:14:28.400Z,10.20
2017-10-27T20:17:04.253Z,10.10
2017-10-27T20:19:38.100Z,10.10
2017-10-27T20:22:11.713Z,10.10
2017-10-27T20:24:45.445Z,10.10
2017-10-27T20:27:19.241Z,10.20
2017-10-27T20:29:52.989Z,10.10
2017-10-27T20:32:26.686Z,10.10
2017-10-27T20:35:00.523Z,10.10
2017-10-27T20:37:36.049Z,10.00
2017-10-27T20:40:09.764Z,10.00
2017-10-27T20:42:43.400Z,10.00
2017-10-27T20:45:17.052Z,9.90
2017-10-27T20:47:54.331Z,9.90
2017-10-27T20:50:28.056Z,9.80
2017-10-27T20:53:01.961Z,9.80
2017-10-27T20:55:35.796Z,9.80
2017-10-27T20:58:09.614Z,9.80
2017-10-27T21:00:43.287Z,9.80
2017-10-27T21:03:17.008Z,9.70
2017-10-27T21:05:50.666Z,9.80
2017-10-27T21:08:24.330Z,9.80
2017-10-27T21:10:57.995Z,9.80
2017-10-27T21:13:31.735Z,9.90
2017-10-27T21:16:05.474Z,9.80
2017-10-27T21:18:39.242Z,9.80
2017-10-27T21:21:12.892Z,9.80
2017-10-27T21:23:46.746Z,9.80
2017-10-27T21:26:20.445Z,9.80
2017-10-27T21:28:54.222Z,9.80
2017-10-27T21:31:27.862Z,9.80
2017-10-27T21:34:01.572Z,9.90
2017-10-27T21:36:36.607Z,9.90
2017-10-27T21:39:10.304Z,9.80
2017-10-27T21:41:43.870Z,9.90
2017-10-27T21:44:17.548Z,9.90
2017-10-27T21:46:51.150Z,9.90
2017-10-27T21:49:24.930Z,9.90
2017-10-27T21:51:58.708Z,9.90
2017-10-27T21:54:32.438Z,9.90
2017-10-27T21:57:06.106Z,9.90
2017-10-27T21:59:39.743Z,9.90
2017-10-27T22:02:14.815Z,9.90
2017-10-27T22:04:48.533Z,9.90
2017-10-27T22:07:22.377Z,9.90
2017-10-27T22:09:56.149Z,9.90
2017-10-27T22:12:29.770Z,9.90
2017-10-27T22:15:03.584Z,9.90
2017-10-27T22:17:37.401Z,9.90
2017-10-27T22:20:11.211Z,9.90
2017-10-27T22:22:44.999Z,9.90
2017-10-27T22:25:18.737Z,9.90
2017-10-27T22:27:52.576Z,9.90
2017-10-27T22:30:26.217Z,9.90
2017-10-27T22:33:00.030Z,9.90
2017-10-27T22:35:34.544Z,9.90
2017-10-27T22:38:08.349Z,9.90
2017-10-27T22:40:42.067Z,9.90
2017-10-27T22:43:15.757Z,9.90
2017-10-27T22:45:49.567Z,9.80
2017-10-27T22:48:23.177Z,9.80
2017-10-27T22:50:56.766Z,9.80
2017-10-27T22:53:30.453Z,9.80
2017-10-27T22:56:04.745Z,9.80
2017-10-27T22:58:38.360Z,9.80
2017-10-27T23:01:12.134Z,9.80
2017-10-27T23:03:45.786Z,9.80
2017-10-27T23:06:19.504Z,9.80
2017-10-27T23:08:53.980Z,9.80
2017-10-27T23:11:27.731Z,9.80
2017-10-27T23:14:01.499Z,9.80
2017-10-27T23:16:35.259Z,9.80
2017-10-27T23:19:09.005Z,9.80
2017-10-27T23:21:42.825Z,9.80
2017-10-27T23:24:16.517Z,9.80
2017-10-27T23:26:50.255Z,9.80
2017-10-27T23:29:24.808Z,9.80
2017-10-27T23:31:58.457Z,9.80
2017-10-27T23:34:32.109Z,9.80
2017-10-27T23:37:06.918Z,9.80
2017-10-27T23:39:40.597Z,9.80
2017-10-27T23:42:14.342Z,9.80
2017-10-27T23:44:48.065Z,9.80
2017-10-27T23:47:22.708Z,9.80
2017-10-27T23:49:57.130Z,9.80
2017-10-27T23:52:30.794Z,9.80
2017-10-27T23:55:04.475Z,9.70
2017-10-27T23:57:38.173Z,9.80
